sensor_id;sensor_type;location;lat;lon;timestamp;P1;durP1;ratioP1;P2;durP2;ratioP2
23578;SDS011;11967;50.852;4.400;2023-08-20T00:00:28;15.13;;;2.58;;
23578;SDS011;11967;50.852;4.400;2023-08-20T00:03:04;14.20;;;2.88;;
23578;SDS011;11967;50.852;4.400;2023-08-20T00:05:39;18.52;;;3.72;;
23578;SDS011;11967;50.852;4.400;2023-08-20T00:08:05;16.48;;;2.92;;
23578;SDS011;11967;50.852;4.400;2023-08-20T00:10:31;12.70;;;2.92;;
23578;SDS011;11967;50.852;4.400;2023-08-20T00:12:57;14.45;;;2.80;;
23578;SDS011;11967;50.852;4.400;2023-08-20T00:15:23;17.17;;;3.05;;
23578;SDS011;11967;50.852;4.400;2023-08-20T00:17:51;15.20;;;3.03;;
23578;SDS011;11967;50.852;4.400;2023-08-20T00:20:18;17.67;;;2.95;;
23578;SDS011;11967;50.852;4.400;2023-08-20T00:22:44;17.10;;;2.53;;
23578;SDS011;11967;50.852;4.400;2023-08-20T00:25:12;13.55;;;3.20;;
23578;SDS011;11967;50.852;4.400;2023-08-20T00:27:41;15.93;;;3.22;;
23578;SDS011;11967;50.852;4.400;2023-08-20T00:30:08;19.88;;;3.50;;
23578;SDS011;11967;50.852;4.400;2023-08-20T00:32:34;15.43;;;3.13;;
23578;SDS011;11967;50.852;4.400;2023-08-20T00:35:00;11.50;;;2.42;;
23578;SDS011;11967;50.852;4.400;2023-08-20T00:37:29;11.50;;;2.70;;
23578;SDS011;11967;50.852;4.400;2023-08-20T00:39:56;14.38;;;2.63;;
23578;SDS011;11967;50.852;4.400;2023-08-20T00:42:22;14.27;;;2.58;;
23578;SDS011;11967;50.852;4.400;2023-08-20T00:44:50;10.75;;;2.83;;
23578;SDS011;11967;50.852;4.400;2023-08-20T00:47:16;15.57;;;2.90;;
23578;SDS011;11967;50.852;4.400;2023-08-20T00:49:43;11.55;;;3.05;;
23578;SDS011;11967;50.852;4.400;2023-08-20T00:52:09;12.02;;;2.55;;
23578;SDS011;11967;50.852;4.400;2023-08-20T00:54:37;13.70;;;2.90;;
23578;SDS011;11967;50.852;4.400;2023-08-20T00:57:04;16.15;;;3.47;;
23578;SDS011;11967;50.852;4.400;2023-08-20T00:59:31;14.40;;;2.97;;
23578;SDS011;11967;50.852;4.400;2023-08-20T01:01:57;11.90;;;2.95;;
23578;SDS011;11967;50.852;4.400;2023-08-20T01:04:23;13.40;;;3.00;;
23578;SDS011;11967;50.852;4.400;2023-08-20T01:12:16;14.23;;;2.73;;
23578;SDS011;11967;50.852;4.400;2023-08-20T01:14:44;15.70;;;2.72;;
23578;SDS011;11967;50.852;4.400;2023-08-20T01:17:10;14.48;;;3.30;;
23578;SDS011;11967;50.852;4.400;2023-08-20T01:19:36;19.05;;;3.25;;
23578;SDS011;11967;50.852;4.400;2023-08-20T01:22:25;14.75;;;2.70;;
23578;SDS011;11967;50.852;4.400;2023-08-20T01:30:27;13.30;;;2.75;;
23578;SDS011;11967;50.852;4.400;2023-08-20T01:32:54;15.73;;;2.97;;
23578;SDS011;11967;50.852;4.400;2023-08-20T01:35:20;15.85;;;3.17;;
23578;SDS011;11967;50.852;4.400;2023-08-20T01:37:49;15.25;;;2.95;;
23578;SDS011;11967;50.852;4.400;2023-08-20T01:40:15;15.52;;;3.20;;
23578;SDS011;11967;50.852;4.400;2023-08-20T01:42:41;17.80;;;3.28;;
23578;SDS011;11967;50.852;4.400;2023-08-20T01:45:06;21.55;;;3.20;;
23578;SDS011;11967;50.852;4.400;2023-08-20T01:47:33;18.00;;;3.42;;
23578;SDS011;11967;50.852;4.400;2023-08-20T01:49:58;13.15;;;2.90;;
23578;SDS011;11967;50.852;4.400;2023-08-20T01:52:24;10.27;;;2.80;;
23578;SDS011;11967;50.852;4.400;2023-08-20T01:54:50;11.98;;;2.67;;
23578;SDS011;11967;50.852;4.400;2023-08-20T01:57:18;14.25;;;3.15;;
23578;SDS011;11967;50.852;4.400;2023-08-20T01:59:44;16.52;;;3.60;;
23578;SDS011;11967;50.852;4.400;2023-08-20T02:02:10;12.40;;;2.78;;
23578;SDS011;11967;50.852;4.400;2023-08-20T02:04:35;13.82;;;3.08;;
23578;SDS011;11967;50.852;4.400;2023-08-20T02:07:01;18.73;;;3.42;;
23578;SDS011;11967;50.852;4.400;2023-08-20T02:09:27;11.57;;;2.83;;
23578;SDS011;11967;50.852;4.400;2023-08-20T02:11:53;14.02;;;2.85;;
23578;SDS011;11967;50.852;4.400;2023-08-20T02:14:23;10.43;;;2.78;;
23578;SDS011;11967;50.852;4.400;2023-08-20T02:16:49;10.68;;;2.67;;
23578;SDS011;11967;50.852;4.400;2023-08-20T02:19:15;11.85;;;2.95;;
23578;SDS011;11967;50.852;4.400;2023-08-20T02:21:41;10.10;;;2.47;;
23578;SDS011;11967;50.852;4.400;2023-08-20T02:24:06;12.68;;;2.60;;
23578;SDS011;11967;50.852;4.400;2023-08-20T02:26:32;9.45;;;2.90;;
23578;SDS011;11967;50.852;4.400;2023-08-20T02:28:58;14.70;;;3.00;;
23578;SDS011;11967;50.852;4.400;2023-08-20T02:31:23;9.85;;;2.40;;
23578;SDS011;11967;50.852;4.400;2023-08-20T02:33:49;10.65;;;2.78;;
23578;SDS011;11967;50.852;4.400;2023-08-20T02:36:15;13.35;;;2.85;;
23578;SDS011;11967;50.852;4.400;2023-08-20T02:38:40;14.95;;;2.83;;
23578;SDS011;11967;50.852;4.400;2023-08-20T02:41:06;15.48;;;2.97;;
23578;SDS011;11967;50.852;4.400;2023-08-20T02:43:32;14.60;;;2.88;;
23578;SDS011;11967;50.852;4.400;2023-08-20T02:45:57;15.32;;;3.10;;
23578;SDS011;11967;50.852;4.400;2023-08-20T02:48:23;11.90;;;2.42;;
23578;SDS011;11967;50.852;4.400;2023-08-20T02:50:52;12.00;;;2.67;;
23578;SDS011;11967;50.852;4.400;2023-08-20T02:53:19;10.90;;;2.80;;
23578;SDS011;11967;50.852;4.400;2023-08-20T02:55:45;12.68;;;2.70;;
23578;SDS011;11967;50.852;4.400;2023-08-20T02:58:11;12.80;;;2.97;;
23578;SDS011;11967;50.852;4.400;2023-08-20T03:00:36;10.75;;;2.97;;
23578;SDS011;11967;50.852;4.400;2023-08-20T03:03:02;9.05;;;2.45;;
23578;SDS011;11967;50.852;4.400;2023-08-20T03:05:33;11.10;;;3.08;;
23578;SDS011;11967;50.852;4.400;2023-08-20T03:07:59;12.02;;;2.42;;
23578;SDS011;11967;50.852;4.400;2023-08-20T03:10:26;15.02;;;3.17;;
23578;SDS011;11967;50.852;4.400;2023-08-20T03:12:52;13.75;;;2.70;;
23578;SDS011;11967;50.852;4.400;2023-08-20T03:15:18;14.07;;;2.92;;
23578;SDS011;11967;50.852;4.400;2023-08-20T03:17:43;11.57;;;2.90;;
23578;SDS011;11967;50.852;4.400;2023-08-20T03:20:09;14.05;;;3.15;;
23578;SDS011;11967;50.852;4.400;2023-08-20T03:22:37;11.50;;;3.28;;
23578;SDS011;11967;50.852;4.400;2023-08-20T03:25:03;12.75;;;3.10;;
23578;SDS011;11967;50.852;4.400;2023-08-20T03:27:29;13.50;;;2.85;;
23578;SDS011;11967;50.852;4.400;2023-08-20T03:29:55;13.82;;;2.90;;
23578;SDS011;11967;50.852;4.400;2023-08-20T03:32:20;11.75;;;2.97;;
23578;SDS011;11967;50.852;4.400;2023-08-20T03:34:46;10.90;;;2.95;;
23578;SDS011;11967;50.852;4.400;2023-08-20T03:37:12;13.10;;;3.25;;
23578;SDS011;11967;50.852;4.400;2023-08-20T03:39:39;11.52;;;3.10;;
23578;SDS011;11967;50.852;4.400;2023-08-20T03:42:04;17.48;;;3.22;;
23578;SDS011;11967;50.852;4.400;2023-08-20T03:44:30;12.63;;;2.97;;
23578;SDS011;11967;50.852;4.400;2023-08-20T03:46:56;12.20;;;3.10;;
23578;SDS011;11967;50.852;4.400;2023-08-20T03:49:22;16.02;;;3.05;;
23578;SDS011;11967;50.852;4.400;2023-08-20T03:51:48;11.75;;;3.17;;
23578;SDS011;11967;50.852;4.400;2023-08-20T03:54:13;9.38;;;2.42;;
23578;SDS011;11967;50.852;4.400;2023-08-20T03:56:39;12.00;;;3.03;;
23578;SDS011;11967;50.852;4.400;2023-08-20T03:59:05;12.63;;;3.08;;
23578;SDS011;11967;50.852;4.400;2023-08-20T04:01:31;12.13;;;2.60;;
23578;SDS011;11967;50.852;4.400;2023-08-20T04:03:56;11.38;;;3.05;;
23578;SDS011;11967;50.852;4.400;2023-08-20T04:06:22;12.27;;;3.00;;
23578;SDS011;11967;50.852;4.400;2023-08-20T04:08:48;11.07;;;3.28;;
23578;SDS011;11967;50.852;4.400;2023-08-20T04:11:13;18.52;;;3.58;;
23578;SDS011;11967;50.852;4.400;2023-08-20T04:13:39;11.60;;;2.78;;
23578;SDS011;11967;50.852;4.400;2023-08-20T04:16:08;14.65;;;3.08;;
23578;SDS011;11967;50.852;4.400;2023-08-20T04:18:33;12.25;;;2.85;;
23578;SDS011;11967;50.852;4.400;2023-08-20T04:20:59;11.38;;;2.95;;
23578;SDS011;11967;50.852;4.400;2023-08-20T04:23:25;10.52;;;3.20;;
23578;SDS011;11967;50.852;4.400;2023-08-20T04:25:51;15.73;;;3.00;;
23578;SDS011;11967;50.852;4.400;2023-08-20T04:28:17;13.80;;;2.80;;
23578;SDS011;11967;50.852;4.400;2023-08-20T04:30:42;10.13;;;2.95;;
23578;SDS011;11967;50.852;4.400;2023-08-20T04:33:08;12.65;;;3.33;;
23578;SDS011;11967;50.852;4.400;2023-08-20T04:35:35;14.02;;;3.30;;
23578;SDS011;11967;50.852;4.400;2023-08-20T04:38:01;15.45;;;3.20;;
23578;SDS011;11967;50.852;4.400;2023-08-20T04:40:27;9.65;;;3.28;;
23578;SDS011;11967;50.852;4.400;2023-08-20T04:42:53;11.55;;;3.20;;
23578;SDS011;11967;50.852;4.400;2023-08-20T04:45:18;11.10;;;3.10;;
23578;SDS011;11967;50.852;4.400;2023-08-20T04:47:45;8.63;;;3.08;;
23578;SDS011;11967;50.852;4.400;2023-08-20T04:50:11;12.02;;;3.10;;
23578;SDS011;11967;50.852;4.400;2023-08-20T04:52:38;9.88;;;3.30;;
23578;SDS011;11967;50.852;4.400;2023-08-20T04:55:04;11.98;;;3.10;;
23578;SDS011;11967;50.852;4.400;2023-08-20T04:57:31;10.48;;;2.65;;
23578;SDS011;11967;50.852;4.400;2023-08-20T04:59:57;11.00;;;3.45;;
23578;SDS011;11967;50.852;4.400;2023-08-20T05:02:22;11.35;;;3.78;;
23578;SDS011;11967;50.852;4.400;2023-08-20T05:04:48;14.57;;;4.13;;
23578;SDS011;11967;50.852;4.400;2023-08-20T05:07:15;16.20;;;4.82;;
23578;SDS011;11967;50.852;4.400;2023-08-20T05:09:41;13.18;;;3.90;;
23578;SDS011;11967;50.852;4.400;2023-08-20T05:12:06;10.15;;;3.40;;
23578;SDS011;11967;50.852;4.400;2023-08-20T05:14:33;13.90;;;3.53;;
23578;SDS011;11967;50.852;4.400;2023-08-20T05:16:58;11.02;;;3.35;;
23578;SDS011;11967;50.852;4.400;2023-08-20T05:19:24;13.45;;;3.33;;
23578;SDS011;11967;50.852;4.400;2023-08-20T05:21:50;17.17;;;4.18;;
23578;SDS011;11967;50.852;4.400;2023-08-20T05:24:17;11.63;;;3.92;;
23578;SDS011;11967;50.852;4.400;2023-08-20T05:26:42;13.30;;;4.07;;
23578;SDS011;11967;50.852;4.400;2023-08-20T05:29:08;12.13;;;3.70;;
23578;SDS011;11967;50.852;4.400;2023-08-20T05:31:33;14.13;;;4.10;;
23578;SDS011;11967;50.852;4.400;2023-08-20T05:33:59;9.50;;;3.10;;
23578;SDS011;11967;50.852;4.400;2023-08-20T05:36:25;11.50;;;3.58;;
23578;SDS011;11967;50.852;4.400;2023-08-20T05:38:50;15.93;;;4.20;;
23578;SDS011;11967;50.852;4.400;2023-08-20T05:41:16;14.70;;;4.47;;
23578;SDS011;11967;50.852;4.400;2023-08-20T05:43:42;12.10;;;4.13;;
23578;SDS011;11967;50.852;4.400;2023-08-20T05:46:07;13.95;;;3.70;;
23578;SDS011;11967;50.852;4.400;2023-08-20T05:48:33;11.98;;;4.00;;
23578;SDS011;11967;50.852;4.400;2023-08-20T05:50:59;12.55;;;3.75;;
23578;SDS011;11967;50.852;4.400;2023-08-20T05:53:24;10.20;;;3.47;;
23578;SDS011;11967;50.852;4.400;2023-08-20T05:55:50;14.35;;;4.20;;
23578;SDS011;11967;50.852;4.400;2023-08-20T05:58:16;13.45;;;4.90;;
23578;SDS011;11967;50.852;4.400;2023-08-20T06:00:41;13.63;;;4.90;;
23578;SDS011;11967;50.852;4.400;2023-08-20T06:03:07;14.65;;;4.80;;
23578;SDS011;11967;50.852;4.400;2023-08-20T06:05:35;11.10;;;4.03;;
23578;SDS011;11967;50.852;4.400;2023-08-20T06:08:01;9.05;;;3.92;;
23578;SDS011;11967;50.852;4.400;2023-08-20T06:10:27;12.50;;;3.80;;
23578;SDS011;11967;50.852;4.400;2023-08-20T06:12:53;11.77;;;3.97;;
23578;SDS011;11967;50.852;4.400;2023-08-20T06:15:19;15.23;;;4.32;;
23578;SDS011;11967;50.852;4.400;2023-08-20T06:17:44;9.70;;;3.28;;
23578;SDS011;11967;50.852;4.400;2023-08-20T06:20:10;10.80;;;3.55;;
23578;SDS011;11967;50.852;4.400;2023-08-20T06:22:36;12.43;;;3.08;;
23578;SDS011;11967;50.852;4.400;2023-08-20T06:25:05;13.90;;;3.55;;
23578;SDS011;11967;50.852;4.400;2023-08-20T06:27:31;11.18;;;3.22;;
23578;SDS011;11967;50.852;4.400;2023-08-20T06:29:56;9.50;;;2.90;;
23578;SDS011;11967;50.852;4.400;2023-08-20T06:32:23;10.50;;;3.40;;
23578;SDS011;11967;50.852;4.400;2023-08-20T06:34:49;14.27;;;3.47;;
23578;SDS011;11967;50.852;4.400;2023-08-20T06:37:14;11.60;;;2.97;;
23578;SDS011;11967;50.852;4.400;2023-08-20T06:39:40;9.18;;;3.50;;
23578;SDS011;11967;50.852;4.400;2023-08-20T06:42:06;15.43;;;5.10;;
23578;SDS011;11967;50.852;4.400;2023-08-20T06:44:31;10.82;;;3.80;;
23578;SDS011;11967;50.852;4.400;2023-08-20T06:46:57;10.45;;;4.10;;
23578;SDS011;11967;50.852;4.400;2023-08-20T06:49:23;11.48;;;3.67;;
23578;SDS011;11967;50.852;4.400;2023-08-20T06:51:48;9.90;;;3.20;;
23578;SDS011;11967;50.852;4.400;2023-08-20T06:54:14;9.75;;;2.90;;
23578;SDS011;11967;50.852;4.400;2023-08-20T06:56:41;11.20;;;4.35;;
23578;SDS011;11967;50.852;4.400;2023-08-20T06:59:06;13.55;;;4.18;;
23578;SDS011;11967;50.852;4.400;2023-08-20T07:01:32;14.20;;;3.83;;
23578;SDS011;11967;50.852;4.400;2023-08-20T07:03:58;8.02;;;2.88;;
23578;SDS011;11967;50.852;4.400;2023-08-20T07:06:23;11.48;;;3.28;;
23578;SDS011;11967;50.852;4.400;2023-08-20T07:08:49;9.98;;;2.90;;
23578;SDS011;11967;50.852;4.400;2023-08-20T07:11:15;7.80;;;3.20;;
23578;SDS011;11967;50.852;4.400;2023-08-20T07:13:40;11.45;;;2.80;;
23578;SDS011;11967;50.852;4.400;2023-08-20T07:16:06;8.23;;;2.95;;
23578;SDS011;11967;50.852;4.400;2023-08-20T07:18:32;8.68;;;2.72;;
23578;SDS011;11967;50.852;4.400;2023-08-20T07:20:57;11.25;;;2.95;;
23578;SDS011;11967;50.852;4.400;2023-08-20T07:23:23;7.35;;;2.42;;
23578;SDS011;11967;50.852;4.400;2023-08-20T07:25:49;6.97;;;2.42;;
23578;SDS011;11967;50.852;4.400;2023-08-20T07:28:17;11.20;;;2.75;;
23578;SDS011;11967;50.852;4.400;2023-08-20T07:30:51;8.48;;;2.60;;
23578;SDS011;11967;50.852;4.400;2023-08-20T07:33:17;9.07;;;2.50;;
23578;SDS011;11967;50.852;4.400;2023-08-20T07:35:43;9.07;;;2.38;;
23578;SDS011;11967;50.852;4.400;2023-08-20T07:38:08;12.07;;;2.20;;
23578;SDS011;11967;50.852;4.400;2023-08-20T07:40:34;7.88;;;2.33;;
23578;SDS011;11967;50.852;4.400;2023-08-20T07:43:00;9.90;;;2.47;;
23578;SDS011;11967;50.852;4.400;2023-08-20T07:45:27;10.65;;;2.25;;
23578;SDS011;11967;50.852;4.400;2023-08-20T07:47:52;10.20;;;3.28;;
23578;SDS011;11967;50.852;4.400;2023-08-20T07:50:18;9.43;;;2.45;;
23578;SDS011;11967;50.852;4.400;2023-08-20T07:52:44;7.28;;;2.60;;
23578;SDS011;11967;50.852;4.400;2023-08-20T07:55:09;6.72;;;2.65;;
23578;SDS011;11967;50.852;4.400;2023-08-20T07:57:35;17.52;;;4.05;;
23578;SDS011;11967;50.852;4.400;2023-08-20T08:00:01;17.90;;;5.40;;
23578;SDS011;11967;50.852;4.400;2023-08-20T08:02:29;15.63;;;4.32;;
23578;SDS011;11967;50.852;4.400;2023-08-20T08:04:54;13.07;;;3.55;;
23578;SDS011;11967;50.852;4.400;2023-08-20T08:07:21;9.45;;;3.40;;
23578;SDS011;11967;50.852;4.400;2023-08-20T08:09:48;9.40;;;3.53;;
23578;SDS011;11967;50.852;4.400;2023-08-20T08:12:13;10.40;;;3.50;;
23578;SDS011;11967;50.852;4.400;2023-08-20T08:14:40;8.40;;;2.70;;
23578;SDS011;11967;50.852;4.400;2023-08-20T08:17:06;10.38;;;3.83;;
23578;SDS011;11967;50.852;4.400;2023-08-20T08:19:32;6.38;;;2.65;;
23578;SDS011;11967;50.852;4.400;2023-08-20T08:21:58;6.50;;;2.40;;
23578;SDS011;11967;50.852;4.400;2023-08-20T08:24:23;8.63;;;2.13;;
23578;SDS011;11967;50.852;4.400;2023-08-20T08:26:49;8.25;;;2.40;;
23578;SDS011;11967;50.852;4.400;2023-08-20T08:29:15;7.00;;;2.42;;
23578;SDS011;11967;50.852;4.400;2023-08-20T08:31:40;6.65;;;2.30;;
23578;SDS011;11967;50.852;4.400;2023-08-20T08:34:06;7.22;;;4.85;;
23578;SDS011;11967;50.852;4.400;2023-08-20T08:36:32;11.10;;;3.75;;
23578;SDS011;11967;50.852;4.400;2023-08-20T08:38:58;7.15;;;2.80;;
23578;SDS011;11967;50.852;4.400;2023-08-20T08:41:24;5.03;;;2.13;;
23578;SDS011;11967;50.852;4.400;2023-08-20T08:43:53;8.23;;;3.30;;
23578;SDS011;11967;50.852;4.400;2023-08-20T08:46:20;7.85;;;3.05;;
23578;SDS011;11967;50.852;4.400;2023-08-20T08:48:46;5.68;;;2.58;;
23578;SDS011;11967;50.852;4.400;2023-08-20T08:51:13;4.25;;;2.00;;
23578;SDS011;11967;50.852;4.400;2023-08-20T08:53:38;5.72;;;1.70;;
23578;SDS011;11967;50.852;4.400;2023-08-20T08:56:05;5.95;;;1.88;;
23578;SDS011;11967;50.852;4.400;2023-08-20T08:58:31;6.00;;;2.28;;
23578;SDS011;11967;50.852;4.400;2023-08-20T09:00:57;5.65;;;2.05;;
23578;SDS011;11967;50.852;4.400;2023-08-20T09:03:23;7.65;;;2.15;;
23578;SDS011;11967;50.852;4.400;2023-08-20T09:05:50;15.45;;;6.70;;
23578;SDS011;11967;50.852;4.400;2023-08-20T09:10:49;6.25;;;2.70;;
23578;SDS011;11967;50.852;4.400;2023-08-20T09:13:16;6.90;;;2.65;;
23578;SDS011;11967;50.852;4.400;2023-08-20T09:15:42;6.97;;;2.72;;
23578;SDS011;11967;50.852;4.400;2023-08-20T09:18:10;6.15;;;1.77;;
23578;SDS011;11967;50.852;4.400;2023-08-20T09:20:36;6.07;;;3.28;;
23578;SDS011;11967;50.852;4.400;2023-08-20T09:23:03;6.07;;;2.78;;
23578;SDS011;11967;50.852;4.400;2023-08-20T09:25:29;3.80;;;2.65;;
23578;SDS011;11967;50.852;4.400;2023-08-20T09:27:55;5.85;;;1.80;;
23578;SDS011;11967;50.852;4.400;2023-08-20T09:30:20;7.53;;;2.13;;
23578;SDS011;11967;50.852;4.400;2023-08-20T09:32:51;6.55;;;2.25;;
23578;SDS011;11967;50.852;4.400;2023-08-20T09:35:28;2.88;;;1.40;;
23578;SDS011;11967;50.852;4.400;2023-08-20T09:38:03;4.05;;;1.98;;
23578;SDS011;11967;50.852;4.400;2023-08-20T09:40:29;3.25;;;1.30;;
23578;SDS011;11967;50.852;4.400;2023-08-20T09:42:56;3.65;;;1.65;;
23578;SDS011;11967;50.852;4.400;2023-08-20T09:45:23;3.00;;;1.23;;
23578;SDS011;11967;50.852;4.400;2023-08-20T09:47:52;5.38;;;1.25;;
23578;SDS011;11967;50.852;4.400;2023-08-20T09:50:21;4.57;;;1.52;;
23578;SDS011;11967;50.852;4.400;2023-08-20T09:53:06;6.03;;;1.63;;
23578;SDS011;11967;50.852;4.400;2023-08-20T09:55:38;6.43;;;1.60;;
23578;SDS011;11967;50.852;4.400;2023-08-20T09:58:07;10.68;;;1.40;;
23578;SDS011;11967;50.852;4.400;2023-08-20T10:00:34;4.70;;;1.50;;
23578;SDS011;11967;50.852;4.400;2023-08-20T10:03:00;3.33;;;1.23;;
23578;SDS011;11967;50.852;4.400;2023-08-20T10:05:26;5.40;;;1.42;;
23578;SDS011;11967;50.852;4.400;2023-08-20T10:07:52;6.40;;;1.30;;
23578;SDS011;11967;50.852;4.400;2023-08-20T10:10:19;3.47;;;1.25;;
23578;SDS011;11967;50.852;4.400;2023-08-20T10:12:45;4.32;;;1.38;;
23578;SDS011;11967;50.852;4.400;2023-08-20T10:15:11;4.15;;;1.17;;
23578;SDS011;11967;50.852;4.400;2023-08-20T10:17:39;5.22;;;1.50;;
23578;SDS011;11967;50.852;4.400;2023-08-20T10:20:06;4.65;;;1.20;;
23578;SDS011;11967;50.852;4.400;2023-08-20T10:22:33;6.60;;;1.40;;
23578;SDS011;11967;50.852;4.400;2023-08-20T10:25:05;2.90;;;1.10;;
23578;SDS011;11967;50.852;4.400;2023-08-20T10:27:36;6.07;;;1.17;;
23578;SDS011;11967;50.852;4.400;2023-08-20T10:30:08;3.78;;;1.10;;
23578;SDS011;11967;50.852;4.400;2023-08-20T10:32:55;3.28;;;1.20;;
23578;SDS011;11967;50.852;4.400;2023-08-20T10:35:26;3.17;;;0.95;;
23578;SDS011;11967;50.852;4.400;2023-08-20T10:40:53;3.92;;;1.40;;
23578;SDS011;11967;50.852;4.400;2023-08-20T10:46:03;4.07;;;1.40;;
23578;SDS011;11967;50.852;4.400;2023-08-20T10:48:33;4.72;;;1.20;;
23578;SDS011;11967;50.852;4.400;2023-08-20T10:53:43;121.80;;;39.67;;
23578;SDS011;11967;50.852;4.400;2023-08-20T10:59:21;24.50;;;7.75;;
23578;SDS011;11967;50.852;4.400;2023-08-20T11:01:48;28.83;;;8.52;;
23578;SDS011;11967;50.852;4.400;2023-08-20T11:04:18;19.05;;;6.93;;
23578;SDS011;11967;50.852;4.400;2023-08-20T11:06:46;22.35;;;7.40;;
23578;SDS011;11967;50.852;4.400;2023-08-20T11:09:14;15.00;;;5.53;;
23578;SDS011;11967;50.852;4.400;2023-08-20T11:11:40;11.77;;;3.53;;
23578;SDS011;11967;50.852;4.400;2023-08-20T11:14:07;9.02;;;3.08;;
23578;SDS011;11967;50.852;4.400;2023-08-20T11:16:36;8.75;;;2.90;;
23578;SDS011;11967;50.852;4.400;2023-08-20T11:19:03;14.15;;;4.35;;
23578;SDS011;11967;50.852;4.400;2023-08-20T11:21:33;13.77;;;3.38;;
23578;SDS011;11967;50.852;4.400;2023-08-20T11:24:08;22.77;;;8.38;;
23578;SDS011;11967;50.852;4.400;2023-08-20T11:26:35;23.60;;;8.15;;
23578;SDS011;11967;50.852;4.400;2023-08-20T11:29:05;13.07;;;4.93;;
23578;SDS011;11967;50.852;4.400;2023-08-20T11:31:31;21.13;;;6.95;;
23578;SDS011;11967;50.852;4.400;2023-08-20T11:33:57;12.10;;;4.53;;
23578;SDS011;11967;50.852;4.400;2023-08-20T11:36:23;9.07;;;3.40;;
23578;SDS011;11967;50.852;4.400;2023-08-20T11:38:52;5.47;;;1.52;;
23578;SDS011;11967;50.852;4.400;2023-08-20T11:41:18;10.88;;;2.58;;
23578;SDS011;11967;50.852;4.400;2023-08-20T11:43:46;8.18;;;2.00;;
23578;SDS011;11967;50.852;4.400;2023-08-20T11:46:12;6.30;;;2.28;;
23578;SDS011;11967;50.852;4.400;2023-08-20T11:49:00;15.80;;;4.15;;
23578;SDS011;11967;50.852;4.400;2023-08-20T11:51:40;7.47;;;2.78;;
23578;SDS011;11967;50.852;4.400;2023-08-20T11:54:12;6.47;;;2.20;;
23578;SDS011;11967;50.852;4.400;2023-08-20T11:59:13;8.52;;;2.55;;
23578;SDS011;11967;50.852;4.400;2023-08-20T12:01:40;5.53;;;1.98;;
23578;SDS011;11967;50.852;4.400;2023-08-20T12:04:09;4.53;;;1.60;;
23578;SDS011;11967;50.852;4.400;2023-08-20T12:06:36;8.43;;;2.10;;
23578;SDS011;11967;50.852;4.400;2023-08-20T12:09:18;9.65;;;2.40;;
23578;SDS011;11967;50.852;4.400;2023-08-20T12:11:48;8.85;;;1.92;;
23578;SDS011;11967;50.852;4.400;2023-08-20T12:14:20;5.18;;;1.75;;
23578;SDS011;11967;50.852;4.400;2023-08-20T12:16:45;8.13;;;1.73;;
23578;SDS011;11967;50.852;4.400;2023-08-20T12:19:12;7.15;;;1.90;;
23578;SDS011;11967;50.852;4.400;2023-08-20T12:21:38;6.82;;;1.70;;
23578;SDS011;11967;50.852;4.400;2023-08-20T12:24:05;5.65;;;1.73;;
23578;SDS011;11967;50.852;4.400;2023-08-20T12:26:31;6.68;;;2.13;;
23578;SDS011;11967;50.852;4.400;2023-08-20T12:28:57;7.28;;;2.72;;
23578;SDS011;11967;50.852;4.400;2023-08-20T12:31:22;7.63;;;2.75;;
23578;SDS011;11967;50.852;4.400;2023-08-20T12:33:48;6.25;;;2.30;;
23578;SDS011;11967;50.852;4.400;2023-08-20T12:36:14;8.10;;;2.38;;
23578;SDS011;11967;50.852;4.400;2023-08-20T12:38:39;6.35;;;1.70;;
23578;SDS011;11967;50.852;4.400;2023-08-20T12:41:06;5.45;;;1.83;;
23578;SDS011;11967;50.852;4.400;2023-08-20T12:43:32;7.78;;;2.20;;
23578;SDS011;11967;50.852;4.400;2023-08-20T12:45:58;5.50;;;1.52;;
23578;SDS011;11967;50.852;4.400;2023-08-20T12:48:23;7.22;;;1.90;;
23578;SDS011;11967;50.852;4.400;2023-08-20T12:50:49;5.57;;;1.75;;
23578;SDS011;11967;50.852;4.400;2023-08-20T12:53:15;5.43;;;1.50;;
23578;SDS011;11967;50.852;4.400;2023-08-20T12:55:40;5.47;;;2.47;;
23578;SDS011;11967;50.852;4.400;2023-08-20T12:58:06;7.63;;;1.80;;
23578;SDS011;11967;50.852;4.400;2023-08-20T13:00:32;3.83;;;1.58;;
23578;SDS011;11967;50.852;4.400;2023-08-20T13:02:58;5.70;;;1.65;;
23578;SDS011;11967;50.852;4.400;2023-08-20T13:05:24;3.83;;;1.60;;
23578;SDS011;11967;50.852;4.400;2023-08-20T13:07:51;4.18;;;1.48;;
23578;SDS011;11967;50.852;4.400;2023-08-20T13:10:17;5.15;;;1.70;;
23578;SDS011;11967;50.852;4.400;2023-08-20T13:12:46;4.28;;;1.52;;
23578;SDS011;11967;50.852;4.400;2023-08-20T13:15:15;4.45;;;1.70;;
23578;SDS011;11967;50.852;4.400;2023-08-20T13:17:42;4.80;;;1.83;;
23578;SDS011;11967;50.852;4.400;2023-08-20T13:20:08;4.55;;;1.63;;
23578;SDS011;11967;50.852;4.400;2023-08-20T13:22:34;5.22;;;1.55;;
23578;SDS011;11967;50.852;4.400;2023-08-20T13:25:00;4.07;;;1.60;;
23578;SDS011;11967;50.852;4.400;2023-08-20T13:27:26;4.25;;;1.70;;
23578;SDS011;11967;50.852;4.400;2023-08-20T13:29:52;6.20;;;2.05;;
23578;SDS011;11967;50.852;4.400;2023-08-20T13:32:18;5.40;;;1.55;;
23578;SDS011;11967;50.852;4.400;2023-08-20T13:34:43;6.03;;;2.10;;
23578;SDS011;11967;50.852;4.400;2023-08-20T13:37:09;5.68;;;1.83;;
23578;SDS011;11967;50.852;4.400;2023-08-20T13:39:35;6.25;;;1.80;;
23578;SDS011;11967;50.852;4.400;2023-08-20T13:42:00;5.85;;;1.83;;
23578;SDS011;11967;50.852;4.400;2023-08-20T13:44:26;6.32;;;2.20;;
23578;SDS011;11967;50.852;4.400;2023-08-20T13:46:52;9.50;;;2.08;;
23578;SDS011;11967;50.852;4.400;2023-08-20T13:49:17;11.98;;;2.17;;
23578;SDS011;11967;50.852;4.400;2023-08-20T13:51:43;4.22;;;2.08;;
23578;SDS011;11967;50.852;4.400;2023-08-20T13:54:08;12.27;;;6.50;;
23578;SDS011;11967;50.852;4.400;2023-08-20T13:56:34;26.00;;;11.18;;
23578;SDS011;11967;50.852;4.400;2023-08-20T13:59:00;39.65;;;14.27;;
23578;SDS011;11967;50.852;4.400;2023-08-20T14:01:25;67.68;;;21.67;;
23578;SDS011;11967;50.852;4.400;2023-08-20T14:03:51;512.17;;;152.70;;
23578;SDS011;11967;50.852;4.400;2023-08-20T14:06:17;424.15;;;123.63;;
23578;SDS011;11967;50.852;4.400;2023-08-20T14:08:46;344.92;;;105.63;;
23578;SDS011;11967;50.852;4.400;2023-08-20T14:11:14;508.55;;;170.68;;
23578;SDS011;11967;50.852;4.400;2023-08-20T14:13:40;249.65;;;90.72;;
23578;SDS011;11967;50.852;4.400;2023-08-20T14:16:07;370.98;;;149.18;;
23578;SDS011;11967;50.852;4.400;2023-08-20T14:18:35;385.88;;;164.25;;
23578;SDS011;11967;50.852;4.400;2023-08-20T14:21:00;160.00;;;72.22;;
23578;SDS011;11967;50.852;4.400;2023-08-20T14:23:26;68.55;;;29.88;;
23578;SDS011;11967;50.852;4.400;2023-08-20T14:25:51;280.95;;;118.78;;
23578;SDS011;11967;50.852;4.400;2023-08-20T14:28:19;169.88;;;69.00;;
23578;SDS011;11967;50.852;4.400;2023-08-20T14:30:45;64.38;;;26.50;;
23578;SDS011;11967;50.852;4.400;2023-08-20T14:33:10;76.15;;;34.90;;
23578;SDS011;11967;50.852;4.400;2023-08-20T14:35:36;33.17;;;13.40;;
23578;SDS011;11967;50.852;4.400;2023-08-20T14:38:02;33.60;;;12.27;;
23578;SDS011;11967;50.852;4.400;2023-08-20T14:40:28;36.03;;;11.60;;
23578;SDS011;11967;50.852;4.400;2023-08-20T14:42:55;25.23;;;8.98;;
23578;SDS011;11967;50.852;4.400;2023-08-20T14:45:20;17.10;;;6.88;;
23578;SDS011;11967;50.852;4.400;2023-08-20T14:47:46;10.23;;;4.15;;
23578;SDS011;11967;50.852;4.400;2023-08-20T14:50:11;15.95;;;5.45;;
23578;SDS011;11967;50.852;4.400;2023-08-20T14:52:37;22.67;;;8.60;;
23578;SDS011;11967;50.852;4.400;2023-08-20T14:55:03;17.02;;;6.85;;
23578;SDS011;11967;50.852;4.400;2023-08-20T14:57:31;17.23;;;6.55;;
23578;SDS011;11967;50.852;4.400;2023-08-20T14:59:57;13.90;;;4.88;;
23578;SDS011;11967;50.852;4.400;2023-08-20T15:02:22;10.35;;;4.18;;